Time;durP1;ratioP1;P1;durP2;ratioP2;P2;SDS_P1;SDS_P2;PMS_P1;PMS_P2;Temp;Humidity;BMP_temperature;BMP_pressure;BME280_temperature;BME280_humidity;BME280_pressure;Samples;Min_cycle;Max_cycle;Signal;HPM_P1;HPM_P2
2023/11/05 00:02:25;;;;;;;;;;;;;;;25.59;43.03;91202.56;4948573;29;8823;-86
2023/11/05 00:04:55;;;;;;;;;;;;;;;25.64;43.45;91209.06;4918243;29;8792;-87
2023/11/05 00:07:22;;;;;;;;;;;;;;;25.57;43.35;91199.69;4933398;29;8759;-86
2023/11/05 00:10:00;;;;;;;;;;;;;;;25.62;43.09;91192.41;4935116;29;7065;-85
2023/11/05 00:12:26;;;;;;;;;;;;;;;25.63;43.84;91193.84;4939597;29;7261;-86
2023/11/05 00:14:59;;;;;;;;;;;;;;;25.64;43.30;91187.78;4926915;29;6857;-86
2023/11/05 00:17:31;;;;;;;;;;;;;;;25.61;43.54;91194.44;4945263;28;7178;-86
2023/11/05 00:20:07;;;;;;;;;;;;;;;25.59;43.88;91197.06;5007775;28;8767;-88
2023/11/05 00:22:36;;;;;;;;;;;;;;;25.59;43.10;91174.31;4982204;28;7234;-86
2023/11/05 00:25:03;;;;;;;;;;;;;;;25.56;43.62;91167.97;5008192;28;8779;-88
2023/11/05 00:27:40;;;;;;;;;;;;;;;25.59;43.49;91172.28;5001542;28;7875;-86
2023/11/05 00:30:18;;;;;;;;;;;;;;;25.59;43.45;91171.56;4991427;28;8834;-86
2023/11/05 00:32:46;;;;;;;;;;;;;;;25.59;43.44;91180.56;5009666;28;7031;-93
2023/11/05 00:35:24;;;;;;;;;;;;;;;25.57;43.41;91172.16;5007397;28;9037;-94
2023/11/05 00:37:52;;;;;;;;;;;;;;;25.58;43.04;91165.34;5003881;28;7035;-93
2023/11/05 00:40:31;;;;;;;;;;;;;;;25.56;43.38;91162.44;4983757;28;8745;-93
2023/11/05 00:43:00;;;;;;;;;;;;;;;25.56;43.14;91156.22;4991033;28;8916;-94
2023/11/05 00:45:28;;;;;;;;;;;;;;;25.51;42.83;91144.25;4991810;28;7502;-92
2023/11/05 00:47:54;;;;;;;;;;;;;;;25.57;43.17;91149.41;4990160;28;8839;-93
2023/11/05 00:50:24;;;;;;;;;;;;;;;25.53;43.44;91141.63;4992008;28;9152;-92
2023/11/05 00:52:52;;;;;;;;;;;;;;;25.53;42.84;91147.13;4985945;28;7581;-93
2023/11/05 00:55:26;;;;;;;;;;;;;;;25.55;42.99;91141.75;4995268;28;9292;-93
2023/11/05 00:58:02;;;;;;;;;;;;;;;25.56;43.50;91150.72;4990604;28;9064;-93
2023/11/05 01:00:37;;;;;;;;;;;;;;;25.56;43.07;91145.94;4995302;28;8637;-93
2023/11/05 01:03:08;;;;;;;;;;;;;;;25.55;42.74;91141.75;5002984;28;8704;-92
2023/11/05 01:05:36;;;;;;;;;;;;;;;25.53;42.91;91125.13;5011267;28;7243;-93
2023/11/05 01:08:03;;;;;;;;;;;;;;;25.45;43.07;91112.84;5011548;28;7035;-93
2023/11/05 01:10:30;;;;;;;;;;;;;;;25.53;42.90;91127.88;5004807;28;9063;-93
2023/11/05 01:12:59;;;;;;;;;;;;;;;25.54;42.96;91126.53;4992527;28;7288;-92
2023/11/05 01:15:26;;;;;;;;;;;;;;;25.46;43.00;91126.03;5010899;28;7218;-92
2023/11/05 01:17:52;;;;;;;;;;;;;;;25.45;43.28;91118.34;4994873;28;8745;-93
2023/11/05 01:20:19;;;;;;;;;;;;;;;25.49;43.27;91124.13;4995189;28;8742;-93
2023/11/05 01:22:58;;;;;;;;;;;;;;;25.49;43.27;91118.63;5006502;28;8723;-93
2023/11/05 01:25:59;;;;;;;;;;;;;;;25.54;43.15;91099.03;4992881;28;9797;-93
2023/11/05 01:28:31;;;;;;;;;;;;;;;25.49;42.85;91083.56;4952448;28;8650;-93
2023/11/05 01:31:06;;;;;;;;;;;;;;;25.52;42.18;91101.66;4962279;28;7478;-92
2023/11/05 01:34:06;;;;;;;;;;;;;;;25.53;43.05;91097.59;4939891;28;10223;-93
2023/11/05 01:36:42;;;;;;;;;;;;;;;25.54;43.13;91106.56;4892540;29;6870;-94
2023/11/05 01:39:09;;;;;;;;;;;;;;;25.54;42.67;91109.31;4900606;29;9249;-93
2023/11/05 01:41:44;;;;;;;;;;;;;;;25.54;42.84;91101.78;4901251;29;8738;-92
2023/11/05 01:44:16;;;;;;;;;;;;;;;25.48;42.84;91098.63;4894825;29;9106;-90
2023/11/05 01:46:59;;;;;;;;;;;;;;;25.54;43.07;91101.06;4899788;29;9484;-91
2023/11/05 01:49:40;;;;;;;;;;;;;;;25.51;42.82;91094.72;4900431;29;7307;-92
2023/11/05 01:52:09;;;;;;;;;;;;;;;25.51;42.94;91102.97;4891170;29;7297;-92
2023/11/05 01:54:49;;;;;;;;;;;;;;;25.52;42.98;91107.16;4895519;29;8135;-91
2023/11/05 01:57:25;;;;;;;;;;;;;;;25.50;43.00;91090.50;4890020;29;9043;-91
2023/11/05 02:00:22;;;;;;;;;;;;;;;25.50;43.26;91087.75;4897210;29;9126;-91
2023/11/05 02:02:54;;;;;;;;;;;;;;;25.48;42.56;91073.88;4862065;29;7122;-91
2023/11/05 02:05:21;;;;;;;;;;;;;;;25.51;42.60;91063.72;4862370;29;7154;-91
2023/11/05 02:07:47;;;;;;;;;;;;;;;25.50;42.50;91063.00;4862566;29;7046;-91
2023/11/05 02:10:13;;;;;;;;;;;;;;;25.49;43.03;91060.84;4861359;29;6862;-92
2023/11/05 02:12:39;;;;;;;;;;;;;;;25.50;42.60;91048.50;4897627;29;7325;-92
2023/11/05 02:15:15;;;;;;;;;;;;;;;25.48;42.74;91038.09;4931758;29;7101;-91
2023/11/05 02:17:51;;;;;;;;;;;;;;;25.45;42.85;91009.00;4915904;29;8762;-90
2023/11/05 02:20:31;;;;;;;;;;;;;;;25.48;42.54;91009.84;4918926;29;8784;-91
2023/11/05 02:23:04;;;;;;;;;;;;;;;25.48;42.72;90994.06;4919446;29;7275;-91
2023/11/05 02:25:30;;;;;;;;;;;;;;;25.49;42.83;90992.75;4919064;29;7067;-91
2023/11/05 02:28:09;;;;;;;;;;;;;;;25.48;42.96;90988.56;4917715;29;8618;-92
2023/11/05 02:31:07;;;;;;;;;;;;;;;25.50;42.41;90985.22;4930435;28;7284;-92
2023/11/05 02:33:45;;;;;;;;;;;;;;;25.48;42.57;90987.84;4900545;29;8801;-91
2023/11/05 02:36:12;;;;;;;;;;;;;;;25.47;43.04;90978.16;4925978;29;7254;-91
2023/11/05 02:38:40;;;;;;;;;;;;;;;25.48;42.92;90977.56;4907399;29;6893;-91
2023/11/05 02:41:11;;;;;;;;;;;;;;;25.43;42.43;90962.09;4938663;28;7934;-90
2023/11/05 02:43:46;;;;;;;;;;;;;;;25.43;42.67;90962.09;4935399;28;7208;-90
2023/11/05 02:46:20;;;;;;;;;;;;;;;25.47;42.69;90961.66;4935886;28;7087;-90
2023/11/05 02:48:47;;;;;;;;;;;;;;;25.46;42.80;90955.44;4952881;28;8692;-90
2023/11/05 02:51:20;;;;;;;;;;;;;;;25.43;42.65;90951.09;4936991;28;7291;-91
2023/11/05 02:54:05;;;;;;;;;;;;;;;25.48;42.83;90960.34;4940316;28;7047;-91
2023/11/05 02:56:35;;;;;;;;;;;;;;;25.45;42.47;90962.22;4932475;28;9167;-90
2023/11/05 02:59:06;;;;;;;;;;;;;;;25.41;42.52;90965.44;4928588;29;9107;-90
2023/11/05 03:01:35;;;;;;;;;;;;;;;25.40;43.16;90941.97;4932373;28;7011;-90
2023/11/05 03:04:19;;;;;;;;;;;;;;;25.50;42.49;90960.47;4932269;28;8671;-90
2023/11/05 03:06:50;;;;;;;;;;;;;;;25.51;42.77;90959.16;4932728;28;7277;-90
2023/11/05 03:09:18;;;;;;;;;;;;;;;25.50;42.89;90950.19;4940254;28;8583;-90
2023/11/05 03:11:53;;;;;;;;;;;;;;;25.50;42.44;90950.19;5006768;28;7352;-90
2023/11/05 03:14:25;;;;;;;;;;;;;;;25.49;42.62;90950.78;4992758;28;8690;-91
2023/11/05 03:16:52;;;;;;;;;;;;;;;25.50;42.86;90955.69;4991346;28;8817;-92
2023/11/05 03:19:18;;;;;;;;;;;;;;;25.50;43.10;90971.47;4987792;28;8609;-91
2023/11/05 03:21:47;;;;;;;;;;;;;;;25.49;43.02;90981.75;4992019;28;7267;-90
2023/11/05 03:24:17;;;;;;;;;;;;;;;25.50;42.35;90994.22;5008260;28;9056;-91
2023/11/05 03:26:43;;;;;;;;;;;;;;;25.48;42.62;90979.59;5000360;28;7301;-91
2023/11/05 03:29:19;;;;;;;;;;;;;;;25.49;42.51;90981.03;4997729;28;9070;-90
2023/11/05 03:31:48;;;;;;;;;;;;;;;25.48;42.39;90985.09;5003635;28;9122;-91
2023/11/05 03:34:14;;;;;;;;;;;;;;;25.47;42.86;90970.63;4995891;28;8893;-91
2023/11/05 03:36:40;;;;;;;;;;;;;;;25.51;42.86;90981.91;4989693;28;8476;-92
2023/11/05 03:39:06;;;;;;;;;;;;;;;25.48;42.61;90985.09;4990393;28;8705;-90
2023/11/05 03:41:33;;;;;;;;;;;;;;;25.51;42.33;90981.19;4993881;28;8583;-89
2023/11/05 03:43:58;;;;;;;;;;;;;;;25.47;42.51;90976.13;4993849;28;8587;-89
2023/11/05 03:46:25;;;;;;;;;;;;;;;25.56;42.08;90993.88;4992041;28;6880;-91
2023/11/05 03:48:53;;;;;;;;;;;;;;;25.54;42.12;91004.75;5000635;28;6873;-91
2023/11/05 03:51:19;;;;;;;;;;;;;;;25.49;42.51;90998.25;5005838;28;8999;-90
2023/11/05 03:53:46;;;;;;;;;;;;;;;25.59;42.25;91012.69;4985637;28;8931;-90
2023/11/05 03:56:16;;;;;;;;;;;;;;;25.58;42.45;91005.72;4992158;28;7037;-91
2023/11/05 03:58:59;;;;;;;;;;;;;;;25.60;42.52;91021.66;4990636;28;7322;-89
2023/11/05 04:01:25;;;;;;;;;;;;;;;25.60;42.29;91022.34;4992472;28;9087;-89
2023/11/05 04:03:53;;;;;;;;;;;;;;;25.57;42.99;91018.06;4994685;28;9127;-90
2023/11/05 04:06:26;;;;;;;;;;;;;;;25.60;42.68;91022.34;4993926;28;8793;-90
2023/11/05 04:08:56;;;;;;;;;;;;;;;25.58;42.63;91016.72;4994373;28;6869;-90
2023/11/05 04:11:23;;;;;;;;;;;;;;;25.59;42.70;91015.44;4985813;28;7441;-90
2023/11/05 04:13:53;;;;;;;;;;;;;;;25.57;42.51;91018.06;4994462;28;7567;-89
2023/11/05 04:16:46;;;;;;;;;;;;;;;25.54;43.10;91032.97;4987198;28;8133;-90
2023/11/05 04:19:14;;;;;;;;;;;;;;;25.51;42.76;91045.19;4970176;28;8596;-89
2023/11/05 04:21:39;;;;;;;;;;;;;;;25.55;43.00;91042.69;4973242;28;8706;-89
2023/11/05 04:24:18;;;;;;;;;;;;;;;25.52;42.91;91034.88;4972608;28;7197;-90
2023/11/05 04:27:14;;;;;;;;;;;;;;;25.59;43.33;91039.47;4956910;28;7370;-89
2023/11/05 04:29:44;;;;;;;;;;;;;;;25.53;42.75;91050.81;4922112;29;6898;-89
2023/11/05 04:32:23;;;;;;;;;;;;;;;25.47;42.54;91050.41;4922827;29;7287;-89
2023/11/05 04:34:50;;;;;;;;;;;;;;;25.49;42.78;91053.28;4919618;29;7350;-89
2023/11/05 04:37:29;;;;;;;;;;;;;;;25.54;42.87;91043.25;4928919;29;7240;-89
2023/11/05 04:39:56;;;;;;;;;;;;;;;25.49;42.88;91044.34;4935574;29;8739;-89
2023/11/05 04:42:32;;;;;;;;;;;;;;;25.49;42.88;91036.78;4922149;29;9069;-90
2023/11/05 04:45:04;;;;;;;;;;;;;;;25.53;43.22;91037.06;4919320;29;6889;-90
2023/11/05 04:47:30;;;;;;;;;;;;;;;25.53;42.56;91048.06;4919335;29;8774;-89
2023/11/05 04:49:56;;;;;;;;;;;;;;;25.52;43.10;91035.59;4917800;29;7247;-90
2023/11/05 04:52:23;;;;;;;;;;;;;;;25.52;43.18;91021.84;4926848;29;7054;-89
2023/11/05 04:54:51;;;;;;;;;;;;;;;25.52;43.04;91030.09;4910927;29;8825;-89
2023/11/05 04:57:18;;;;;;;;;;;;;;;25.46;43.47;91009.72;4957774;28;7297;-89
2023/11/05 05:00:05;;;;;;;;;;;;;;;25.52;42.78;91012.88;4956306;28;7753;-89
2023/11/05 05:02:31;;;;;;;;;;;;;;;25.52;42.63;91016.34;4957023;28;8533;-89
2023/11/05 05:05:07;;;;;;;;;;;;;;;25.52;43.00;91030.09;4956963;28;8911;-88
2023/11/05 05:07:33;;;;;;;;;;;;;;;25.49;43.07;90997.56;4991303;28;9156;-89
2023/11/05 05:10:05;;;;;;;;;;;;;;;25.52;42.97;91008.09;4992975;28;9102;-89
2023/11/05 05:12:33;;;;;;;;;;;;;;;25.49;43.20;91009.25;4996675;28;7481;-86
2023/11/05 05:15:03;;;;;;;;;;;;;;;25.46;43.19;91004.22;4995888;28;8773;-86
2023/11/05 05:17:38;;;;;;;;;;;;;;;25.51;43.30;91009.41;4996452;28;7184;-86
2023/11/05 05:20:10;;;;;;;;;;;;;;;25.52;43.15;91007.38;4996513;28;7092;-87
2023/11/05 05:22:38;;;;;;;;;;;;;;;25.51;43.03;90997.69;4995121;28;7091;-87
2023/11/05 05:25:06;;;;;;;;;;;;;;;25.52;43.32;90996.34;5011857;28;9747;-86
2023/11/05 05:27:32;;;;;;;;;;;;;;;25.52;43.46;91008.09;5012214;28;8760;-87
2023/11/05 05:29:59;;;;;;;;;;;;;;;25.53;42.98;90993.03;4986861;28;7282;-86
2023/11/05 05:32:26;;;;;;;;;;;;;;;25.49;42.60;91003.75;4993082;28;8732;-86
2023/11/05 05:34:53;;;;;;;;;;;;;;;25.53;42.72;91012.28;4994815;28;6987;-89
2023/11/05 05:37:19;;;;;;;;;;;;;;;25.48;42.96;91005.09;4992693;28;7033;-86
2023/11/05 05:39:47;;;;;;;;;;;;;;;25.51;43.24;91008.69;5020491;28;7102;-88
2023/11/05 05:42:26;;;;;;;;;;;;;;;25.49;43.09;91022.31;4995354;28;11677;-86
2023/11/05 05:44:54;;;;;;;;;;;;;;;25.50;42.57;91018.97;4984554;28;7270;-88
2023/11/05 05:47:51;;;;;;;;;;;;;;;25.54;43.54;91026.75;5011315;28;7326;-87
2023/11/05 05:50:26;;;;;;;;;;;;;;;25.55;43.28;91036.47;4955161;28;7172;-86
2023/11/05 05:53:01;;;;;;;;;;;;;;;25.54;42.93;91040.50;4968049;28;9021;-85
2023/11/05 05:55:41;;;;;;;;;;;;;;;25.53;43.08;91050.81;4971514;28;7263;-87
2023/11/05 05:58:07;;;;;;;;;;;;;;;25.54;43.03;91038.50;4975427;28;8751;-86
2023/11/05 06:00:34;;;;;;;;;;;;;;;25.53;42.69;91042.56;4975325;28;8738;-85
2023/11/05 06:03:20;;;;;;;;;;;;;;;25.53;43.24;91042.56;4961732;28;8948;-86
2023/11/05 06:05:47;;;;;;;;;;;;;;;25.51;42.61;91047.94;4971941;28;8833;-87
2023/11/05 06:08:14;;;;;;;;;;;;;;;25.52;42.98;91057.63;4956287;28;7358;-87
2023/11/05 06:10:41;;;;;;;;;;;;;;;25.53;42.55;91056.31;4959432;28;7412;-87
2023/11/05 06:13:07;;;;;;;;;;;;;;;25.53;43.24;91064.59;4957959;28;7381;-84
2023/11/05 06:15:40;;;;;;;;;;;;;;;25.53;43.06;91052.84;4965465;28;7040;-86
2023/11/05 06:18:10;;;;;;;;;;;;;;;25.54;42.55;91070.78;4974360;28;7046;-86
2023/11/05 06:20:38;;;;;;;;;;;;;;;25.47;42.88;91039.41;4957491;28;7330;-86
2023/11/05 06:23:17;;;;;;;;;;;;;;;25.55;42.72;91059.22;4971918;28;7066;-93
2023/11/05 06:25:59;;;;;;;;;;;;;;;25.55;43.27;91061.97;4955231;28;6945;-92
2023/11/05 06:28:28;;;;;;;;;;;;;;;25.54;42.57;91049.50;5004426;28;7145;-93
2023/11/05 06:30:55;;;;;;;;;;;;;;;25.55;43.03;91045.44;4993503;28;6988;-92
2023/11/05 06:33:53;;;;;;;;;;;;;;;25.55;42.78;91034.44;4989288;28;8780;-92
2023/11/05 06:36:24;;;;;;;;;;;;;;;25.52;42.40;91048.63;4955030;28;7048;-93
2023/11/05 06:38:56;;;;;;;;;;;;;;;25.54;43.20;91076.28;4971744;28;6940;-92
2023/11/05 06:41:53;;;;;;;;;;;;;;;25.55;42.68;91075.72;4955904;28;7331;-92
2023/11/05 06:44:25;;;;;;;;;;;;;;;25.55;42.81;91092.22;4861914;29;8724;-93
2023/11/05 06:46:54;;;;;;;;;;;;;;;25.53;43.34;91072.84;4863571;29;9395;-92
2023/11/05 06:49:46;;;;;;;;;;;;;;;25.53;43.45;91089.34;4868190;29;8579;-92
2023/11/05 06:52:22;;;;;;;;;;;;;;;25.49;43.44;91094.56;4874800;29;8913;-90
2023/11/05 06:55:04;;;;;;;;;;;;;;;25.49;43.03;91108.31;4859636;29;9016;-92
2023/11/05 06:57:49;;;;;;;;;;;;;;;25.52;43.02;91111.94;4861096;29;7324;-92
2023/11/05 07:00:26;;;;;;;;;;;;;;;25.53;43.00;91119.63;4861553;29;9088;-92
2023/11/05 07:02:54;;;;;;;;;;;;;;;25.54;43.14;91125.81;4874570;29;9069;-92
2023/11/05 07:05:21;;;;;;;;;;;;;;;25.55;42.74;91127.28;4875985;29;9319;-93
2023/11/05 07:07:50;;;;;;;;;;;;;;;25.54;43.16;91126.53;4876459;29;8839;-93
2023/11/05 07:10:27;;;;;;;;;;;;;;;25.55;42.58;91136.25;4878337;29;6856;-93
2023/11/05 07:13:21;;;;;;;;;;;;;;;25.58;42.63;91120.59;4877801;29;8758;-92
2023/11/05 07:15:55;;;;;;;;;;;;;;;25.57;42.61;91135.66;4914622;29;7002;-94
2023/11/05 07:18:32;;;;;;;;;;;;;;;25.55;43.31;91154.78;4915731;29;9212;-93
2023/11/05 07:21:05;;;;;;;;;;;;;;;25.56;42.72;91165.19;4953201;28;9506;-93
2023/11/05 07:23:38;;;;;;;;;;;;;;;25.57;42.75;91179.69;4991264;28;9247;-92
2023/11/05 07:26:36;;;;;;;;;;;;;;;25.58;42.54;91187.34;5008972;28;7256;-92
2023/11/05 07:29:03;;;;;;;;;;;;;;;25.58;42.71;91178.41;4962105;28;9215;-92
2023/11/05 07:31:33;;;;;;;;;;;;;;;25.59;43.08;91191.56;4949958;28;8758;-92
2023/11/05 07:34:03;;;;;;;;;;;;;;;25.60;42.56;91200.53;4972331;28;7115;-92
2023/11/05 07:36:40;;;;;;;;;;;;;;;25.61;42.83;91197.19;4971190;28;9228;-90
2023/11/05 07:39:12;;;;;;;;;;;;;;;25.61;43.10;91193.72;4968588;28;8704;-91
2023/11/05 07:41:49;;;;;;;;;;;;;;;25.61;42.95;91201.97;4964710;28;7278;-93
2023/11/05 07:44:20;;;;;;;;;;;;;;;25.61;43.41;91207.47;4969885;28;7048;-91
2023/11/05 07:46:49;;;;;;;;;;;;;;;25.59;43.47;91224.59;4954887;28;9036;-92
2023/11/05 07:49:36;;;;;;;;;;;;;;;25.62;43.05;91237.16;4971469;28;9029;-91
2023/11/05 07:52:15;;;;;;;;;;;;;;;25.68;42.71;91254.09;4963823;28;7259;-92
2023/11/05 07:54:51;;;;;;;;;;;;;;;25.68;42.37;91245.84;4968113;28;8997;-93
2023/11/05 07:57:35;;;;;;;;;;;;;;;25.66;43.17;91258.75;4968304;28;7337;-92
2023/11/05 08:00:03;;;;;;;;;;;;;;;25.66;42.80;91250.47;4955546;28;8706;-91
2023/11/05 08:02:31;;;;;;;;;;;;;;;25.65;43.20;91258.00;4971245;28;7281;-91
2023/11/05 08:05:27;;;;;;;;;;;;;;;25.67;43.14;91260.91;4985553;28;9549;-92
2023/11/05 08:08:02;;;;;;;;;;;;;;;25.67;43.15;91265.69;4934747;28;7288;-92
2023/11/05 08:11:00;;;;;;;;;;;;;;;25.72;43.24;91270.88;4943148;28;7278;-92
2023/11/05 08:13:28;;;;;;;;;;;;;;;25.73;42.92;91286.06;4937121;28;7456;-91
2023/11/05 08:16:03;;;;;;;;;;;;;;;25.76;42.75;91298.69;4949363;28;7278;-90
2023/11/05 08:18:58;;;;;;;;;;;;;;;25.78;42.36;91293.31;4938112;28;7094;-91
2023/11/05 08:21:28;;;;;;;;;;;;;;;25.76;43.08;91301.44;4860376;29;7325;-91
2023/11/05 08:24:26;;;;;;;;;;;;;;;25.76;42.66;91320.72;4861484;29;7007;-92
2023/11/05 08:27:05;;;;;;;;;;;;;;;25.81;43.02;91340.97;4808064;29;9038;-90
2023/11/05 08:29:34;;;;;;;;;;;;;;;25.79;42.52;91343.59;4807174;29;6946;-90
2023/11/05 08:32:08;;;;;;;;;;;;;;;25.77;42.72;91371.72;4812818;29;10035;-91
2023/11/05 08:34:59;;;;;;;;;;;;;;;25.76;42.98;91399.81;4822813;29;8806;-91
2023/11/05 08:37:31;;;;;;;;;;;;;;;25.74;43.01;91391.41;4823210;29;9038;-93
2023/11/05 08:40:13;;;;;;;;;;;;;;;25.72;43.28;91411.28;4824111;29;7245;-92
2023/11/05 08:42:39;;;;;;;;;;;;;;;25.69;43.52;91420.69;4818628;29;7275;-89
2023/11/05 08:45:06;;;;;;;;;;;;;;;25.68;43.56;91421.28;4845797;29;8755;-89
2023/11/05 08:47:35;;;;;;;;;;;;;;;25.67;43.08;91411.56;4864099;29;8739;-90
2023/11/05 08:50:10;;;;;;;;;;;;;;;25.67;43.21;91415.03;4870752;29;8715;-89
2023/11/05 08:52:37;;;;;;;;;;;;;;;25.68;43.19;91422.00;4873925;29;7232;-91
2023/11/05 08:55:12;;;;;;;;;;;;;;;25.69;43.25;91453.00;4880644;29;8748;-92
2023/11/05 08:57:51;;;;;;;;;;;;;;;25.71;42.76;91459.38;4902036;29;7242;-90
2023/11/05 09:00:32;;;;;;;;;;;;;;;25.70;43.02;91446.91;4917033;29;7461;-91
2023/11/05 09:03:28;;;;;;;;;;;;;;;25.72;42.96;91454.59;4984070;28;9419;-90
2023/11/05 09:06:05;;;;;;;;;;;;;;;25.74;43.43;91469.22;4933528;29;9864;-90
2023/11/05 09:08:41;;;;;;;;;;;;;;;25.73;42.85;91470.50;4917218;29;7322;-90
2023/11/05 09:11:18;;;;;;;;;;;;;;;25.72;43.21;91474.59;4929901;29;7452;-91
2023/11/05 09:13:53;;;;;;;;;;;;;;;25.76;42.90;91480.38;4919947;29;7069;-90
2023/11/05 09:16:22;;;;;;;;;;;;;;;25.70;43.09;91485.47;4914859;29;9008;-90
2023/11/05 09:19:07;;;;;;;;;;;;;;;25.66;42.49;91463.16;4935036;29;8761;-88
2023/11/05 09:21:52;;;;;;;;;;;;;;;25.67;43.10;91478.34;4929795;29;9072;-89
2023/11/05 09:24:19;;;;;;;;;;;;;;;25.65;42.65;91486.47;4915067;29;7038;-89
2023/11/05 09:26:54;;;;;;;;;;;;;;;25.67;42.84;91508.63;4920121;29;7067;-90
2023/11/05 09:29:28;;;;;;;;;;;;;;;25.67;43.44;91505.16;4919706;29;8847;-91
2023/11/05 09:31:54;;;;;;;;;;;;;;;25.62;42.84;91492.41;4934933;29;7482;-89
2023/11/05 09:34:36;;;;;;;;;;;;;;;25.68;43.45;91501.84;4935762;29;8713;-90
2023/11/05 09:37:03;;;;;;;;;;;;;;;25.68;43.55;91496.31;4934661;29;7343;-89
2023/11/05 09:39:31;;;;;;;;;;;;;;;25.70;43.77;91509.50;4911893;29;7271;-89
2023/11/05 09:42:15;;;;;;;;;;;;;;;25.68;43.75;91515.59;4956660;28;7036;-88
2023/11/05 09:44:44;;;;;;;;;;;;;;;25.70;43.80;91529.50;4990405;28;7402;-95
2023/11/05 09:47:12;;;;;;;;;;;;;;;25.69;43.53;91541.81;4969584;28;8746;-89
2023/11/05 09:49:42;;;;;;;;;;;;;;;25.70;43.42;91537.75;4991932;28;7122;-89
2023/11/05 09:52:21;;;;;;;;;;;;;;;25.69;43.63;91547.31;4991585;28;9019;-89
2023/11/05 09:54:53;;;;;;;;;;;;;;;25.71;43.47;91538.50;4987266;28;9081;-90
2023/11/05 09:57:21;;;;;;;;;;;;;;;25.70;43.49;91539.78;4991544;28;8781;-89
2023/11/05 09:59:52;;;;;;;;;;;;;;;25.73;43.80;91546.91;5004389;28;8875;-89
2023/11/05 10:02:55;;;;;;;;;;;;;;;25.79;43.53;91545.31;4990455;28;9124;-89
2023/11/05 10:05:29;;;;;;;;;;;;;;;25.82;43.09;91557.16;4987674;28;6997;-89
2023/11/05 10:07:56;;;;;;;;;;;;;;;25.83;42.73;91553.84;4994160;28;7255;-89
2023/11/05 10:10:36;;;;;;;;;;;;;;;25.84;42.91;91552.53;4986001;28;6992;-88
2023/11/05 10:13:10;;;;;;;;;;;;;;;25.86;43.40;91551.97;4988998;28;7471;-89
2023/11/05 10:15:41;;;;;;;;;;;;;;;25.87;43.04;91567.16;4988206;28;7455;-89
2023/11/05 10:18:18;;;;;;;;;;;;;;;25.88;42.58;91577.59;5009167;28;8775;-88
2023/11/05 10:20:59;;;;;;;;;;;;;;;25.84;43.52;91582.81;4984788;28;8849;-90
2023/11/05 10:23:50;;;;;;;;;;;;;;;25.89;42.72;91576.31;4987250;28;7283;-92
2023/11/05 10:26:47;;;;;;;;;;;;;;;25.92;42.80;91585.44;5008475;28;8793;-91
2023/11/05 10:29:44;;;;;;;;;;;;;;;25.89;43.37;91598.34;5010369;28;7323;-90
2023/11/05 10:32:12;;;;;;;;;;;;;;;25.86;42.60;91599.47;4983688;28;7669;-90
2023/11/05 10:34:42;;;;;;;;;;;;;;;25.83;43.32;91603.41;4974285;28;7524;-90
2023/11/05 10:37:11;;;;;;;;;;;;;;;25.83;42.81;91619.94;4976337;28;8109;-89
2023/11/05 10:39:37;;;;;;;;;;;;;;;25.92;43.14;91621.25;4964749;28;7034;-92
2023/11/05 10:42:04;;;;;;;;;;;;;;;25.88;42.73;91632.66;4985255;28;8726;-92
2023/11/05 10:44:35;;;;;;;;;;;;;;;25.84;43.21;91624.13;4992204;28;7001;-91
2023/11/05 10:47:16;;;;;;;;;;;;;;;25.95;43.11;91639.34;4973145;28;9027;-91
2023/11/05 10:49:57;;;;;;;;;;;;;;;25.94;42.92;91640.66;4975943;28;7111;-90
2023/11/05 10:52:40;;;;;;;;;;;;;;;25.95;43.09;91642.81;4986284;28;8309;-91
2023/11/05 10:55:07;;;;;;;;;;;;;;;25.96;43.25;91655.31;4975973;28;7257;-90
2023/11/05 10:57:47;;;;;;;;;;;;;;;25.95;42.99;91653.09;4987906;28;7335;-90
2023/11/05 11:00:25;;;;;;;;;;;;;;;25.96;42.31;91665.59;4987215;28;9010;-90
2023/11/05 11:02:59;;;;;;;;;;;;;;;25.97;42.72;91684.28;4989535;28;9032;-90
2023/11/05 11:05:56;;;;;;;;;;;;;;;25.98;42.60;91660.97;4974386;28;7096;-91
2023/11/05 11:08:26;;;;;;;;;;;;;;;25.98;42.49;91669.22;4971672;28;8837;-90
2023/11/05 11:11:15;;;;;;;;;;;;;;;26.00;42.25;91672.13;4985301;28;9071;-90
2023/11/05 11:13:57;;;;;;;;;;;;;;;26.02;42.84;91677.78;5007449;28;7290;-90
2023/11/05 11:16:34;;;;;;;;;;;;;;;26.03;42.86;91670.25;5008138;28;8896;-90
2023/11/05 11:19:22;;;;;;;;;;;;;;;26.03;42.18;91686.78;5008097;28;9037;-90
2023/11/05 11:21:48;;;;;;;;;;;;;;;26.04;42.21;91661.38;5007610;28;9043;-91
2023/11/05 11:24:36;;;;;;;;;;;;;;;26.04;42.58;91704.72;4991373;28;9132;-90
2023/11/05 11:27:06;;;;;;;;;;;;;;;26.00;42.50;91696.91;4990707;28;9142;-88
2023/11/05 11:29:45;;;;;;;;;;;;;;;26.03;42.22;91714.31;4991733;28;7078;-90
2023/11/05 11:32:15;;;;;;;;;;;;;;;26.04;42.27;91716.47;4987124;28;7461;-90
2023/11/05 11:34:53;;;;;;;;;;;;;;;26.04;43.34;91724.75;4986356;28;8774;-90
2023/11/05 11:37:22;;;;;;;;;;;;;;;26.05;42.65;91748.25;4991366;28;7029;-90
2023/11/05 11:39:55;;;;;;;;;;;;;;;26.04;42.99;91721.25;4992057;28;7271;-90
2023/11/05 11:42:26;;;;;;;;;;;;;;;25.98;43.49;91729.81;4989017;28;8743;-90
2023/11/05 11:44:55;;;;;;;;;;;;;;;26.01;44.11;91739.66;5007227;28;8511;-89
2023/11/05 11:47:23;;;;;;;;;;;;;;;25.92;43.92;91731.38;4989523;28;7501;-90
2023/11/05 11:49:54;;;;;;;;;;;;;;;26.02;44.38;91757.66;4987520;28;8628;-89
2023/11/05 11:52:21;;;;;;;;;;;;;;;25.99;44.98;91761.53;5002299;28;7490;-88
2023/11/05 11:54:54;;;;;;;;;;;;;;;25.96;45.50;91754.44;5008628;28;7001;-89
2023/11/05 11:57:20;;;;;;;;;;;;;;;25.99;45.28;91763.59;4990041;28;7235;-89
2023/11/05 11:59:55;;;;;;;;;;;;;;;25.99;45.45;91775.31;4990585;28;7321;-89
2023/11/05 12:02:26;;;;;;;;;;;;;;;26.00;45.07;91781.56;4989196;28;8705;-89
2023/11/05 12:05:01;;;;;;;;;;;;;;;26.01;44.96;91785.78;4991454;28;8096;-90
2023/11/05 12:07:59;;;;;;;;;;;;;;;26.02;45.32;91784.47;4991989;28;7176;-89
2023/11/05 12:10:25;;;;;;;;;;;;;;;26.00;45.48;91787.06;5002249;28;9085;-89
2023/11/05 12:12:52;;;;;;;;;;;;;;;25.96;45.12;91781.25;4984948;28;7307;-89
2023/11/05 12:15:19;;;;;;;;;;;;;;;26.02;44.90;91792.72;4985849;28;6998;-90
2023/11/05 12:17:51;;;;;;;;;;;;;;;26.01;44.50;91780.97;4990306;28;6994;-88
2023/11/05 12:20:21;;;;;;;;;;;;;;;26.04;44.54;91799.13;5006946;28;9006;-88
2023/11/05 12:22:48;;;;;;;;;;;;;;;26.05;44.70;91814.34;5003165;28;8932;-88
2023/11/05 12:25:14;;;;;;;;;;;;;;;26.08;44.32;91821.47;4990934;28;6996;-89
2023/11/05 12:27:52;;;;;;;;;;;;;;;26.03;44.04;91807.97;5003029;28;8767;-89
2023/11/05 12:30:44;;;;;;;;;;;;;;;26.11;44.20;91822.34;4990399;28;8971;-88
2023/11/05 12:33:10;;;;;;;;;;;;;;;26.10;44.46;91812.63;4951381;29;8815;-88
2023/11/05 12:35:46;;;;;;;;;;;;;;;26.10;44.34;91818.88;4936321;29;8937;-89
2023/11/05 12:38:22;;;;;;;;;;;;;;;26.09;44.23;91842.22;4920597;29;9086;-89
2023/11/05 12:40:51;;;;;;;;;;;;;;;26.11;43.93;91828.59;4944562;29;9061;-88
2023/11/05 12:43:29;;;;;;;;;;;;;;;26.10;44.59;91845.69;4939034;29;9218;-90
2023/11/05 12:46:11;;;;;;;;;;;;;;;26.08;44.18;91843.50;4925712;29;7236;-89
2023/11/05 12:48:40;;;;;;;;;;;;;;;26.10;43.70;91851.19;4944572;28;7267;-89
2023/11/05 12:51:10;;;;;;;;;;;;;;;26.11;44.18;91864.41;4939241;28;8809;-89
2023/11/05 12:53:41;;;;;;;;;;;;;;;26.11;44.20;91863.69;4938629;28;9871;-90
2023/11/05 12:56:25;;;;;;;;;;;;;;;26.09;43.94;91871.78;4938285;28;7114;-90
2023/11/05 12:58:55;;;;;;;;;;;;;;;26.09;43.67;91880.78;4953203;28;7253;-89
2023/11/05 13:01:30;;;;;;;;;;;;;;;26.10;43.96;91887.00;4938712;28;6994;-90
2023/11/05 13:03:59;;;;;;;;;;;;;;;26.10;43.69;91895.28;4944234;28;9072;-90
2023/11/05 13:06:27;;;;;;;;;;;;;;;26.12;43.97;91892.69;4950115;28;9020;-89
2023/11/05 13:08:55;;;;;;;;;;;;;;;26.13;43.71;91905.16;4935475;28;7267;-90
2023/11/05 13:11:26;;;;;;;;;;;;;;;26.10;44.36;91911.81;4986106;28;8949;-91
2023/11/05 13:14:03;;;;;;;;;;;;;;;26.13;43.83;91927.19;5011839;28;9085;-90
2023/11/05 13:16:29;;;;;;;;;;;;;;;26.09;43.70;91933.13;4990427;28;9046;-89
2023/11/05 13:18:57;;;;;;;;;;;;;;;26.12;43.89;91939.53;4988424;28;9077;-91
2023/11/05 13:21:39;;;;;;;;;;;;;;;26.12;43.76;91954.00;4994942;28;7359;-92
2023/11/05 13:24:19;;;;;;;;;;;;;;;26.14;44.14;91953.47;5008587;28;9152;-91
2023/11/05 13:26:46;;;;;;;;;;;;;;;26.14;43.70;91959.66;5005882;28;8653;-92
2023/11/05 13:29:16;;;;;;;;;;;;;;;26.15;43.79;91949.38;5017434;28;8687;-92
2023/11/05 13:31:50;;;;;;;;;;;;;;;26.16;44.27;91967.38;4991110;28;9044;-91
2023/11/05 13:34:16;;;;;;;;;;;;;;;26.10;43.96;91955.88;5000421;28;7263;-90